sensor_id;sensor_type;location;lat;lon;timestamp;P1;durP1;ratioP1;P2;durP2;ratioP2
65420;SDS011;52028;50.658;14.004;2022-09-09T00:00:06;38.88;;;9.55;;
65420;SDS011;52028;50.658;14.004;2022-09-09T00:02:37;36.28;;;9.07;;
65420;SDS011;52028;50.658;14.004;2022-09-09T00:07:38;33.95;;;8.02;;
65420;SDS011;52028;50.658;14.004;2022-09-09T00:13:06;63.17;;;10.20;;
65420;SDS011;52028;50.658;14.004;2022-09-09T00:18:25;29.00;;;8.50;;
65420;SDS011;52028;50.658;14.004;2022-09-09T00:20:58;52.00;;;9.85;;
65420;SDS011;52028;50.658;14.004;2022-09-09T00:23:32;43.17;;;9.40;;
65420;SDS011;52028;50.658;14.004;2022-09-09T00:29:10;51.15;;;11.35;;
65420;SDS011;52028;50.658;14.004;2022-09-09T00:31:38;66.25;;;9.98;;
65420;SDS011;52028;50.658;14.004;2022-09-09T00:34:20;52.95;;;10.05;;
65420;SDS011;52028;50.658;14.004;2022-09-09T00:36:48;88.45;;;9.98;;
65420;SDS011;52028;50.658;14.004;2022-09-09T00:44:50;37.30;;;8.23;;
65420;SDS011;52028;50.658;14.004;2022-09-09T00:47:40;53.25;;;9.55;;
65420;SDS011;52028;50.658;14.004;2022-09-09T00:58:24;79.72;;;12.55;;
65420;SDS011;52028;50.658;14.004;2022-09-09T01:00:56;58.10;;;11.55;;
65420;SDS011;52028;50.658;14.004;2022-09-09T01:03:35;78.20;;;12.10;;
65420;SDS011;52028;50.658;14.004;2022-09-09T01:09:04;58.35;;;11.20;;
65420;SDS011;52028;50.658;14.004;2022-09-09T01:14:01;61.30;;;10.65;;
65420;SDS011;52028;50.658;14.004;2022-09-09T01:16:37;65.45;;;10.43;;
65420;SDS011;52028;50.658;14.004;2022-09-09T01:19:03;105.85;;;13.05;;
65420;SDS011;52028;50.658;14.004;2022-09-09T01:21:49;76.70;;;11.30;;
65420;SDS011;52028;50.658;14.004;2022-09-09T01:24:37;64.22;;;11.65;;
65420;SDS011;52028;50.658;14.004;2022-09-09T01:27:07;37.78;;;9.65;;
65420;SDS011;52028;50.658;14.004;2022-09-09T01:29:34;45.80;;;10.52;;
65420;SDS011;52028;50.658;14.004;2022-09-09T01:32:00;79.22;;;10.93;;
65420;SDS011;52028;50.658;14.004;2022-09-09T01:34:29;34.80;;;10.13;;
65420;SDS011;52028;50.658;14.004;2022-09-09T01:36:59;39.08;;;8.82;;
65420;SDS011;52028;50.658;14.004;2022-09-09T01:39:32;28.58;;;8.50;;
65420;SDS011;52028;50.658;14.004;2022-09-09T01:42:00;28.70;;;8.60;;
65420;SDS011;52028;50.658;14.004;2022-09-09T01:44:26;22.58;;;7.65;;
65420;SDS011;52028;50.658;14.004;2022-09-09T01:46:52;64.28;;;9.23;;
65420;SDS011;52028;50.658;14.004;2022-09-09T01:49:18;42.45;;;9.00;;
65420;SDS011;52028;50.658;14.004;2022-09-09T01:51:44;59.85;;;8.38;;
65420;SDS011;52028;50.658;14.004;2022-09-09T01:54:14;45.13;;;9.07;;
65420;SDS011;52028;50.658;14.004;2022-09-09T01:59:11;30.75;;;8.18;;
65420;SDS011;52028;50.658;14.004;2022-09-09T02:01:48;61.60;;;8.60;;
65420;SDS011;52028;50.658;14.004;2022-09-09T02:04:31;24.30;;;9.00;;
65420;SDS011;52028;50.658;14.004;2022-09-09T02:07:03;59.53;;;9.18;;
65420;SDS011;52028;50.658;14.004;2022-09-09T02:09:35;67.03;;;10.18;;
65420;SDS011;52028;50.658;14.004;2022-09-09T02:12:18;41.70;;;8.95;;
65420;SDS011;52028;50.658;14.004;2022-09-09T02:14:49;67.25;;;10.00;;
65420;SDS011;52028;50.658;14.004;2022-09-09T02:17:22;36.75;;;8.65;;
65420;SDS011;52028;50.658;14.004;2022-09-09T02:19:54;19.17;;;8.23;;
65420;SDS011;52028;50.658;14.004;2022-09-09T02:22:24;32.50;;;9.07;;
65420;SDS011;52028;50.658;14.004;2022-09-09T02:24:52;65.43;;;10.20;;
65420;SDS011;52028;50.658;14.004;2022-09-09T02:27:21;74.63;;;11.18;;
65420;SDS011;52028;50.658;14.004;2022-09-09T02:29:47;77.82;;;11.60;;
65420;SDS011;52028;50.658;14.004;2022-09-09T02:32:20;63.67;;;10.77;;
65420;SDS011;52028;50.658;14.004;2022-09-09T02:34:48;40.53;;;10.55;;
65420;SDS011;52028;50.658;14.004;2022-09-09T02:37:17;71.05;;;11.63;;
65420;SDS011;52028;50.658;14.004;2022-09-09T02:39:45;65.88;;;11.35;;
65420;SDS011;52028;50.658;14.004;2022-09-09T02:42:11;82.00;;;12.50;;
65420;SDS011;52028;50.658;14.004;2022-09-09T02:44:39;59.70;;;9.98;;
65420;SDS011;52028;50.658;14.004;2022-09-09T02:47:16;53.50;;;11.32;;
65420;SDS011;52028;50.658;14.004;2022-09-09T02:49:59;33.15;;;11.05;;
65420;SDS011;52028;50.658;14.004;2022-09-09T02:55:47;60.30;;;10.32;;
65420;SDS011;52028;50.658;14.004;2022-09-09T02:58:18;46.80;;;9.40;;
65420;SDS011;52028;50.658;14.004;2022-09-09T03:00:45;41.90;;;10.20;;
65420;SDS011;52028;50.658;14.004;2022-09-09T03:03:12;49.15;;;10.68;;
65420;SDS011;52028;50.658;14.004;2022-09-09T03:05:38;34.72;;;10.95;;
65420;SDS011;52028;50.658;14.004;2022-09-09T03:08:04;25.20;;;9.85;;
65420;SDS011;52028;50.658;14.004;2022-09-09T03:10:30;41.67;;;8.63;;
65420;SDS011;52028;50.658;14.004;2022-09-09T03:12:56;41.92;;;9.25;;
65420;SDS011;52028;50.658;14.004;2022-09-09T03:15:22;42.83;;;10.02;;
65420;SDS011;52028;50.658;14.004;2022-09-09T03:17:47;44.45;;;9.85;;
65420;SDS011;52028;50.658;14.004;2022-09-09T03:20:12;52.17;;;9.65;;
65420;SDS011;52028;50.658;14.004;2022-09-09T03:22:38;61.15;;;9.45;;
65420;SDS011;52028;50.658;14.004;2022-09-09T03:25:03;51.70;;;10.75;;
65420;SDS011;52028;50.658;14.004;2022-09-09T03:27:30;68.35;;;10.13;;
65420;SDS011;52028;50.658;14.004;2022-09-09T03:29:56;44.50;;;10.55;;
65420;SDS011;52028;50.658;14.004;2022-09-09T03:32:22;54.80;;;12.38;;
65420;SDS011;52028;50.658;14.004;2022-09-09T03:34:49;35.30;;;10.10;;
65420;SDS011;52028;50.658;14.004;2022-09-09T03:37:17;85.75;;;11.43;;
65420;SDS011;52028;50.658;14.004;2022-09-09T03:39:43;48.80;;;10.07;;
65420;SDS011;52028;50.658;14.004;2022-09-09T03:42:08;38.38;;;8.43;;
65420;SDS011;52028;50.658;14.004;2022-09-09T03:44:34;41.08;;;9.13;;
65420;SDS011;52028;50.658;14.004;2022-09-09T03:46:59;64.13;;;10.60;;
65420;SDS011;52028;50.658;14.004;2022-09-09T03:49:27;41.63;;;9.13;;
65420;SDS011;52028;50.658;14.004;2022-09-09T03:51:56;44.47;;;10.73;;
65420;SDS011;52028;50.658;14.004;2022-09-09T03:54:22;42.13;;;9.20;;
65420;SDS011;52028;50.658;14.004;2022-09-09T03:56:48;34.38;;;8.80;;
65420;SDS011;52028;50.658;14.004;2022-09-09T03:59:13;51.10;;;9.25;;
65420;SDS011;52028;50.658;14.004;2022-09-09T04:01:39;38.70;;;9.38;;
65420;SDS011;52028;50.658;14.004;2022-09-09T04:04:04;43.95;;;8.70;;
65420;SDS011;52028;50.658;14.004;2022-09-09T04:06:30;43.00;;;10.15;;
65420;SDS011;52028;50.658;14.004;2022-09-09T04:08:59;56.22;;;10.20;;
65420;SDS011;52028;50.658;14.004;2022-09-09T04:11:24;38.47;;;10.00;;
65420;SDS011;52028;50.658;14.004;2022-09-09T04:13:49;46.70;;;9.38;;
65420;SDS011;52028;50.658;14.004;2022-09-09T04:16:15;35.05;;;8.77;;
65420;SDS011;52028;50.658;14.004;2022-09-09T04:18:40;25.55;;;8.88;;
65420;SDS011;52028;50.658;14.004;2022-09-09T04:21:08;29.02;;;8.43;;
65420;SDS011;52028;50.658;14.004;2022-09-09T04:23:37;28.40;;;8.10;;
65420;SDS011;52028;50.658;14.004;2022-09-09T04:26:03;27.90;;;7.88;;
65420;SDS011;52028;50.658;14.004;2022-09-09T04:28:29;29.05;;;8.50;;
65420;SDS011;52028;50.658;14.004;2022-09-09T04:31:03;43.20;;;8.73;;
65420;SDS011;52028;50.658;14.004;2022-09-09T04:33:31;26.00;;;8.00;;
65420;SDS011;52028;50.658;14.004;2022-09-09T04:35:56;28.80;;;7.95;;
65420;SDS011;52028;50.658;14.004;2022-09-09T04:38:22;30.17;;;8.70;;
65420;SDS011;52028;50.658;14.004;2022-09-09T04:40:48;25.77;;;7.50;;
65420;SDS011;52028;50.658;14.004;2022-09-09T04:43:15;21.92;;;8.38;;
65420;SDS011;52028;50.658;14.004;2022-09-09T04:45:42;19.95;;;6.85;;
65420;SDS011;52028;50.658;14.004;2022-09-09T04:48:08;18.58;;;7.95;;
65420;SDS011;52028;50.658;14.004;2022-09-09T04:50:37;27.80;;;8.40;;
65420;SDS011;52028;50.658;14.004;2022-09-09T04:53:02;35.70;;;8.20;;
65420;SDS011;52028;50.658;14.004;2022-09-09T04:55:32;18.55;;;8.32;;
65420;SDS011;52028;50.658;14.004;2022-09-09T04:58:07;25.23;;;8.95;;
65420;SDS011;52028;50.658;14.004;2022-09-09T05:00:34;35.00;;;8.98;;
65420;SDS011;52028;50.658;14.004;2022-09-09T05:03:04;34.17;;;9.40;;
65420;SDS011;52028;50.658;14.004;2022-09-09T05:05:30;28.15;;;9.43;;
65420;SDS011;52028;50.658;14.004;2022-09-09T05:08:00;40.75;;;10.50;;
65420;SDS011;52028;50.658;14.004;2022-09-09T05:10:29;38.97;;;10.02;;
65420;SDS011;52028;50.658;14.004;2022-09-09T05:12:55;28.65;;;9.70;;
65420;SDS011;52028;50.658;14.004;2022-09-09T05:15:21;27.55;;;8.77;;
65420;SDS011;52028;50.658;14.004;2022-09-09T05:17:46;35.20;;;9.07;;
65420;SDS011;52028;50.658;14.004;2022-09-09T05:20:11;24.45;;;8.88;;
65420;SDS011;52028;50.658;14.004;2022-09-09T05:22:37;31.35;;;9.70;;
65420;SDS011;52028;50.658;14.004;2022-09-09T05:25:05;37.50;;;10.40;;
65420;SDS011;52028;50.658;14.004;2022-09-09T05:27:33;46.30;;;9.68;;
65420;SDS011;52028;50.658;14.004;2022-09-09T05:29:59;33.50;;;9.70;;
65420;SDS011;52028;50.658;14.004;2022-09-09T05:32:24;31.35;;;10.30;;
65420;SDS011;52028;50.658;14.004;2022-09-09T05:34:49;20.80;;;9.10;;
65420;SDS011;52028;50.658;14.004;2022-09-09T05:37:16;15.82;;;8.40;;
65420;SDS011;52028;50.658;14.004;2022-09-09T05:39:41;18.20;;;8.60;;
65420;SDS011;52028;50.658;14.004;2022-09-09T05:42:07;19.80;;;10.05;;
65420;SDS011;52028;50.658;14.004;2022-09-09T05:44:33;27.13;;;10.18;;
65420;SDS011;52028;50.658;14.004;2022-09-09T05:46:59;27.67;;;10.10;;
65420;SDS011;52028;50.658;14.004;2022-09-09T05:49:25;16.50;;;9.40;;
65420;SDS011;52028;50.658;14.004;2022-09-09T05:51:50;19.98;;;10.48;;
65420;SDS011;52028;50.658;14.004;2022-09-09T05:54:16;26.08;;;10.35;;
65420;SDS011;52028;50.658;14.004;2022-09-09T05:56:41;22.38;;;10.35;;
65420;SDS011;52028;50.658;14.004;2022-09-09T05:59:07;20.17;;;9.55;;
65420;SDS011;52028;50.658;14.004;2022-09-09T06:01:34;17.20;;;9.10;;
65420;SDS011;52028;50.658;14.004;2022-09-09T06:04:01;17.27;;;9.27;;
65420;SDS011;52028;50.658;14.004;2022-09-09T06:06:29;20.63;;;11.05;;
65420;SDS011;52028;50.658;14.004;2022-09-09T06:08:56;15.20;;;7.78;;
65420;SDS011;52028;50.658;14.004;2022-09-09T06:11:30;17.65;;;8.93;;
65420;SDS011;52028;50.658;14.004;2022-09-09T06:13:57;20.23;;;9.48;;
65420;SDS011;52028;50.658;14.004;2022-09-09T06:16:27;21.65;;;10.65;;
65420;SDS011;52028;50.658;14.004;2022-09-09T06:18:54;19.50;;;11.45;;
65420;SDS011;52028;50.658;14.004;2022-09-09T06:23:47;30.15;;;11.32;;
65420;SDS011;52028;50.658;14.004;2022-09-09T06:28:41;20.00;;;10.38;;
65420;SDS011;52028;50.658;14.004;2022-09-09T06:31:09;20.25;;;10.77;;
65420;SDS011;52028;50.658;14.004;2022-09-09T06:33:37;20.20;;;11.20;;
65420;SDS011;52028;50.658;14.004;2022-09-09T06:36:13;21.70;;;11.20;;
65420;SDS011;52028;50.658;14.004;2022-09-09T06:38:40;17.33;;;10.05;;
65420;SDS011;52028;50.658;14.004;2022-09-09T06:41:09;23.58;;;11.30;;
65420;SDS011;52028;50.658;14.004;2022-09-09T06:43:36;22.42;;;11.20;;
65420;SDS011;52028;50.658;14.004;2022-09-09T06:48:31;27.35;;;12.80;;
65420;SDS011;52028;50.658;14.004;2022-09-09T06:51:05;30.00;;;13.40;;
65420;SDS011;52028;50.658;14.004;2022-09-09T06:53:32;21.65;;;12.15;;
65420;SDS011;52028;50.658;14.004;2022-09-09T06:58:48;25.23;;;13.82;;
65420;SDS011;52028;50.658;14.004;2022-09-09T07:01:16;20.20;;;11.68;;
65420;SDS011;52028;50.658;14.004;2022-09-09T07:03:45;23.77;;;12.60;;
65420;SDS011;52028;50.658;14.004;2022-09-09T07:06:14;25.50;;;12.38;;
65420;SDS011;52028;50.658;14.004;2022-09-09T07:08:42;25.77;;;13.05;;
65420;SDS011;52028;50.658;14.004;2022-09-09T07:11:09;27.35;;;14.10;;
65420;SDS011;52028;50.658;14.004;2022-09-09T07:13:36;23.95;;;13.13;;
65420;SDS011;52028;50.658;14.004;2022-09-09T07:16:05;26.85;;;15.43;;
65420;SDS011;52028;50.658;14.004;2022-09-09T07:18:32;25.58;;;14.07;;
65420;SDS011;52028;50.658;14.004;2022-09-09T07:21:00;24.02;;;13.85;;
65420;SDS011;52028;50.658;14.004;2022-09-09T07:23:27;28.98;;;14.90;;
65420;SDS011;52028;50.658;14.004;2022-09-09T07:25:53;27.30;;;14.07;;
65420;SDS011;52028;50.658;14.004;2022-09-09T07:28:19;29.27;;;15.32;;
65420;SDS011;52028;50.658;14.004;2022-09-09T07:30:55;26.60;;;14.40;;
65420;SDS011;52028;50.658;14.004;2022-09-09T07:33:27;23.48;;;14.50;;
65420;SDS011;52028;50.658;14.004;2022-09-09T07:36:01;28.95;;;14.13;;
65420;SDS011;52028;50.658;14.004;2022-09-09T07:38:28;28.73;;;14.75;;
65420;SDS011;52028;50.658;14.004;2022-09-09T07:41:01;27.70;;;14.82;;
65420;SDS011;52028;50.658;14.004;2022-09-09T07:43:28;21.65;;;12.68;;
65420;SDS011;52028;50.658;14.004;2022-09-09T07:45:57;20.33;;;11.05;;
65420;SDS011;52028;50.658;14.004;2022-09-09T07:48:23;20.33;;;12.15;;
65420;SDS011;52028;50.658;14.004;2022-09-09T07:50:49;23.75;;;12.43;;
65420;SDS011;52028;50.658;14.004;2022-09-09T07:53:16;25.65;;;13.02;;
65420;SDS011;52028;50.658;14.004;2022-09-09T07:55:41;22.35;;;12.60;;
65420;SDS011;52028;50.658;14.004;2022-09-09T07:58:07;19.85;;;11.48;;
65420;SDS011;52028;50.658;14.004;2022-09-09T08:00:33;16.73;;;9.30;;
65420;SDS011;52028;50.658;14.004;2022-09-09T08:03:03;16.50;;;8.93;;
65420;SDS011;52028;50.658;14.004;2022-09-09T08:05:32;15.07;;;8.55;;
65420;SDS011;52028;50.658;14.004;2022-09-09T08:08:04;15.85;;;9.15;;
65420;SDS011;52028;50.658;14.004;2022-09-09T08:10:45;16.10;;;7.70;;
65420;SDS011;52028;50.658;14.004;2022-09-09T08:16:03;13.18;;;6.07;;
65420;SDS011;52028;50.658;14.004;2022-09-09T08:18:38;10.60;;;4.40;;
65420;SDS011;52028;50.658;14.004;2022-09-09T08:21:05;9.32;;;5.18;;
65420;SDS011;52028;50.658;14.004;2022-09-09T08:23:33;11.10;;;6.40;;
65420;SDS011;52028;50.658;14.004;2022-09-09T08:26:03;9.43;;;4.50;;
65420;SDS011;52028;50.658;14.004;2022-09-09T08:28:29;13.50;;;5.10;;
65420;SDS011;52028;50.658;14.004;2022-09-09T08:30:56;9.32;;;5.53;;
65420;SDS011;52028;50.658;14.004;2022-09-09T08:33:29;6.57;;;3.97;;
65420;SDS011;52028;50.658;14.004;2022-09-09T08:35:54;5.10;;;3.30;;
65420;SDS011;52028;50.658;14.004;2022-09-09T08:38:19;4.97;;;3.13;;
65420;SDS011;52028;50.658;14.004;2022-09-09T08:40:46;5.22;;;2.97;;
65420;SDS011;52028;50.658;14.004;2022-09-09T08:43:14;4.78;;;3.05;;
65420;SDS011;52028;50.658;14.004;2022-09-09T08:45:50;5.65;;;3.13;;
65420;SDS011;52028;50.658;14.004;2022-09-09T08:48:39;7.80;;;4.00;;
65420;SDS011;52028;50.658;14.004;2022-09-09T08:51:09;4.88;;;3.85;;
65420;SDS011;52028;50.658;14.004;2022-09-09T08:53:40;5.78;;;3.67;;
65420;SDS011;52028;50.658;14.004;2022-09-09T08:56:10;6.50;;;3.83;;
65420;SDS011;52028;50.658;14.004;2022-09-09T08:58:47;6.60;;;4.25;;
65420;SDS011;52028;50.658;14.004;2022-09-09T09:06:35;7.28;;;4.65;;
65420;SDS011;52028;50.658;14.004;2022-09-09T09:11:46;11.07;;;5.00;;
65420;SDS011;52028;50.658;14.004;2022-09-09T09:14:21;7.85;;;5.60;;
65420;SDS011;52028;50.658;14.004;2022-09-09T09:19:20;8.48;;;5.25;;
65420;SDS011;52028;50.658;14.004;2022-09-09T09:27:16;7.15;;;4.65;;
65420;SDS011;52028;50.658;14.004;2022-09-09T09:29:49;7.50;;;4.65;;
65420;SDS011;52028;50.658;14.004;2022-09-09T09:32:16;9.60;;;5.28;;
65420;SDS011;52028;50.658;14.004;2022-09-09T09:37:20;7.93;;;5.10;;
65420;SDS011;52028;50.658;14.004;2022-09-09T09:40:07;8.13;;;4.80;;
65420;SDS011;52028;50.658;14.004;2022-09-09T09:48:03;5.90;;;4.05;;
65420;SDS011;52028;50.658;14.004;2022-09-09T09:50:31;6.40;;;4.28;;
65420;SDS011;52028;50.658;14.004;2022-09-09T09:52:58;8.18;;;4.43;;
65420;SDS011;52028;50.658;14.004;2022-09-09T09:55:27;5.53;;;3.60;;
65420;SDS011;52028;50.658;14.004;2022-09-09T09:58:05;7.55;;;3.80;;
65420;SDS011;52028;50.658;14.004;2022-09-09T10:00:32;6.07;;;3.97;;
65420;SDS011;52028;50.658;14.004;2022-09-09T10:03:00;6.18;;;3.70;;
65420;SDS011;52028;50.658;14.004;2022-09-09T10:05:26;7.38;;;3.83;;
65420;SDS011;52028;50.658;14.004;2022-09-09T10:08:05;14.90;;;4.95;;
65420;SDS011;52028;50.658;14.004;2022-09-09T10:16:18;8.30;;;3.83;;
65420;SDS011;52028;50.658;14.004;2022-09-09T10:29:41;8.43;;;5.05;;
65420;SDS011;52028;50.658;14.004;2022-09-09T10:46:45;8.38;;;4.47;;
65420;SDS011;52028;50.658;14.004;2022-09-09T10:55:41;9.27;;;5.25;;
65420;SDS011;52028;50.658;14.004;2022-09-09T10:58:10;7.03;;;5.10;;
65420;SDS011;52028;50.658;14.004;2022-09-09T11:00:47;9.90;;;5.55;;
65420;SDS011;52028;50.658;14.004;2022-09-09T11:03:20;8.18;;;4.88;;
65420;SDS011;52028;50.658;14.004;2022-09-09T11:05:52;11.48;;;4.75;;
65420;SDS011;52028;50.658;14.004;2022-09-09T11:08:22;8.55;;;4.63;;
65420;SDS011;52028;50.658;14.004;2022-09-09T11:11:03;7.43;;;4.85;;
65420;SDS011;52028;50.658;14.004;2022-09-09T11:22:19;9.52;;;5.03;;
65420;SDS011;52028;50.658;14.004;2022-09-09T11:25:08;11.75;;;5.18;;
65420;SDS011;52028;50.658;14.004;2022-09-09T11:30:54;8.65;;;5.18;;
65420;SDS011;52028;50.658;14.004;2022-09-09T11:42:12;6.90;;;3.90;;
65420;SDS011;52028;50.658;14.004;2022-09-09T11:44:43;8.82;;;4.40;;
65420;SDS011;52028;50.658;14.004;2022-09-09T11:47:26;8.18;;;3.45;;
65420;SDS011;52028;50.658;14.004;2022-09-09T11:50:22;6.45;;;3.20;;
65420;SDS011;52028;50.658;14.004;2022-09-09T11:55:32;5.40;;;3.50;;
65420;SDS011;52028;50.658;14.004;2022-09-09T12:03:03;3.72;;;2.75;;
65420;SDS011;52028;50.658;14.004;2022-09-09T12:05:42;9.35;;;2.88;;
65420;SDS011;52028;50.658;14.004;2022-09-09T12:08:10;5.03;;;2.90;;
65420;SDS011;52028;50.658;14.004;2022-09-09T12:10:52;8.23;;;3.40;;
65420;SDS011;52028;50.658;14.004;2022-09-09T12:13:20;4.93;;;3.00;;
65420;SDS011;52028;50.658;14.004;2022-09-09T12:18:41;6.57;;;2.70;;
65420;SDS011;52028;50.658;14.004;2022-09-09T12:23:59;3.97;;;1.50;;
65420;SDS011;52028;50.658;14.004;2022-09-09T12:26:34;3.67;;;1.50;;
65420;SDS011;52028;50.658;14.004;2022-09-09T12:31:59;7.00;;;4.35;;
65420;SDS011;52028;50.658;14.004;2022-09-09T12:40:01;3.47;;;1.27;;
65420;SDS011;52028;50.658;14.004;2022-09-09T12:42:29;1.88;;;1.02;;
65420;SDS011;52028;50.658;14.004;2022-09-09T12:45:03;1.65;;;1.02;;
65420;SDS011;52028;50.658;14.004;2022-09-09T12:47:44;4.47;;;2.10;;
65420;SDS011;52028;50.658;14.004;2022-09-09T12:50:24;3.47;;;1.40;;
65420;SDS011;52028;50.658;14.004;2022-09-09T12:52:52;5.25;;;1.42;;
65420;SDS011;52028;50.658;14.004;2022-09-09T12:55:38;4.75;;;3.08;;
65420;SDS011;52028;50.658;14.004;2022-09-09T12:58:05;3.83;;;1.73;;
65420;SDS011;52028;50.658;14.004;2022-09-09T13:00:31;5.35;;;2.30;;
65420;SDS011;52028;50.658;14.004;2022-09-09T13:03:02;4.10;;;2.88;;
65420;SDS011;52028;50.658;14.004;2022-09-09T13:05:39;6.50;;;3.15;;
65420;SDS011;52028;50.658;14.004;2022-09-09T13:08:06;4.72;;;2.33;;
65420;SDS011;52028;50.658;14.004;2022-09-09T13:10:45;5.20;;;2.25;;
65420;SDS011;52028;50.658;14.004;2022-09-09T13:13:19;4.45;;;2.17;;
65420;SDS011;52028;50.658;14.004;2022-09-09T13:15:51;5.07;;;2.33;;
65420;SDS011;52028;50.658;14.004;2022-09-09T13:18:21;4.55;;;2.10;;
65420;SDS011;52028;50.658;14.004;2022-09-09T13:20:48;5.25;;;2.13;;
65420;SDS011;52028;50.658;14.004;2022-09-09T13:23:15;5.97;;;2.25;;
65420;SDS011;52028;50.658;14.004;2022-09-09T13:25:51;4.13;;;2.20;;
65420;SDS011;52028;50.658;14.004;2022-09-09T13:28:20;3.97;;;1.90;;
65420;SDS011;52028;50.658;14.004;2022-09-09T13:30:55;5.55;;;1.45;;
65420;SDS011;52028;50.658;14.004;2022-09-09T13:33:28;4.25;;;2.10;;
65420;SDS011;52028;50.658;14.004;2022-09-09T13:35:59;4.25;;;2.28;;
65420;SDS011;52028;50.658;14.004;2022-09-09T13:38:35;7.45;;;2.20;;
65420;SDS011;52028;50.658;14.004;2022-09-09T13:41:06;4.90;;;2.22;;
65420;SDS011;52028;50.658;14.004;2022-09-09T13:43:37;6.63;;;1.85;;
65420;SDS011;52028;50.658;14.004;2022-09-09T13:54:06;3.97;;;2.75;;
65420;SDS011;52028;50.658;14.004;2022-09-09T13:56:34;2.38;;;1.40;;
65420;SDS011;52028;50.658;14.004;2022-09-09T13:59:02;5.60;;;1.60;;
65420;SDS011;52028;50.658;14.004;2022-09-09T14:01:28;4.35;;;2.08;;
65420;SDS011;52028;50.658;14.004;2022-09-09T14:03:55;3.85;;;2.17;;
65420;SDS011;52028;50.658;14.004;2022-09-09T14:06:21;6.25;;;2.25;;
65420;SDS011;52028;50.658;14.004;2022-09-09T14:08:47;6.80;;;2.72;;
65420;SDS011;52028;50.658;14.004;2022-09-09T14:11:14;4.25;;;1.90;;
65420;SDS011;52028;50.658;14.004;2022-09-09T14:13:39;5.43;;;1.70;;
65420;SDS011;52028;50.658;14.004;2022-09-09T14:16:05;3.78;;;1.80;;
65420;SDS011;52028;50.658;14.004;2022-09-09T14:18:31;2.60;;;1.55;;
65420;SDS011;52028;50.658;14.004;2022-09-09T14:20:56;3.80;;;1.27;;
65420;SDS011;52028;50.658;14.004;2022-09-09T14:23:23;2.50;;;1.30;;
65420;SDS011;52028;50.658;14.004;2022-09-09T14:25:49;4.32;;;1.20;;
65420;SDS011;52028;50.658;14.004;2022-09-09T14:28:15;1.45;;;1.10;;
65420;SDS011;52028;50.658;14.004;2022-09-09T14:30:41;6.70;;;1.50;;
65420;SDS011;52028;50.658;14.004;2022-09-09T14:33:09;4.88;;;1.40;;
65420;SDS011;52028;50.658;14.004;2022-09-09T14:35:36;3.85;;;1.70;;
65420;SDS011;52028;50.658;14.004;2022-09-09T14:38:02;3.00;;;1.45;;
65420;SDS011;52028;50.658;14.004;2022-09-09T14:40:28;2.42;;;1.40;;
65420;SDS011;52028;50.658;14.004;2022-09-09T14:42:54;2.90;;;1.40;;
65420;SDS011;52028;50.658;14.004;2022-09-09T14:45:21;2.63;;;1.35;;
65420;SDS011;52028;50.658;14.004;2022-09-09T14:47:46;2.30;;;1.20;;
65420;SDS011;52028;50.658;14.004;2022-09-09T14:50:12;4.15;;;1.40;;
65420;SDS011;52028;50.658;14.004;2022-09-09T14:52:38;2.92;;;1.33;;
65420;SDS011;52028;50.658;14.004;2022-09-09T14:55:04;3.67;;;1.60;;
65420;SDS011;52028;50.658;14.004;2022-09-09T14:57:30;2.63;;;1.40;;
65420;SDS011;52028;50.658;14.004;2022-09-09T14:59:56;2.85;;;1.20;;
65420;SDS011;52028;50.658;14.004;2022-09-09T15:02:21;3.45;;;2.15;;
65420;SDS011;52028;50.658;14.004;2022-09-09T15:04:47;3.60;;;1.30;;
65420;SDS011;52028;50.658;14.004;2022-09-09T15:07:14;4.63;;;1.63;;
65420;SDS011;52028;50.658;14.004;2022-09-09T15:09:40;2.85;;;1.70;;
65420;SDS011;52028;50.658;14.004;2022-09-09T15:12:05;2.95;;;1.45;;
65420;SDS011;52028;50.658;14.004;2022-09-09T15:14:31;5.80;;;2.08;;
65420;SDS011;52028;50.658;14.004;2022-09-09T15:16:56;3.63;;;1.40;;
65420;SDS011;52028;50.658;14.004;2022-09-09T15:19:21;3.85;;;1.38;;
65420;SDS011;52028;50.658;14.004;2022-09-09T15:21:47;5.70;;;1.55;;
65420;SDS011;52028;50.658;14.004;2022-09-09T15:24:12;3.33;;;1.50;;
65420;SDS011;52028;50.658;14.004;2022-09-09T15:26:38;6.45;;;1.60;;
65420;SDS011;52028;50.658;14.004;2022-09-09T15:29:04;3.08;;;1.27;;
65420;SDS011;52028;50.658;14.004;2022-09-09T15:31:30;2.50;;;1.52;;
65420;SDS011;52028;50.658;14.004;2022-09-09T15:33:57;5.13;;;1.40;;
65420;SDS011;52028;50.658;14.004;2022-09-09T15:39:00;3.55;;;1.40;;
65420;SDS011;52028;50.658;14.004;2022-09-09T15:41:27;3.78;;;1.58;;
65420;SDS011;52028;50.658;14.004;2022-09-09T15:43:53;5.80;;;1.30;;
65420;SDS011;52028;50.658;14.004;2022-09-09T15:49:08;8.85;;;3.08;;
65420;SDS011;52028;50.658;14.004;2022-09-09T15:51:38;5.90;;;2.40;;
65420;SDS011;52028;50.658;14.004;2022-09-09T15:54:05;4.30;;;1.30;;
65420;SDS011;52028;50.658;14.004;2022-09-09T15:56:31;4.93;;;1.20;;
65420;SDS011;52028;50.658;14.004;2022-09-09T15:58:57;3.63;;;1.65;;
65420;SDS011;52028;50.658;14.004;2022-09-09T16:01:24;3.22;;;1.30;;
65420;SDS011;52028;50.658;14.004;2022-09-09T16:03:50;2.63;;;1.40;;
65420;SDS011;52028;50.658;14.004;2022-09-09T16:06:17;3.65;;;1.58;;
65420;SDS011;52028;50.658;14.004;2022-09-09T16:08:46;7.28;;;1.83;;
65420;SDS011;52028;50.658;14.004;2022-09-09T16:11:16;2.55;;;1.30;;
65420;SDS011;52028;50.658;14.004;2022-09-09T16:13:45;8.05;;;2.28;;
65420;SDS011;52028;50.658;14.004;2022-09-09T16:16:11;3.45;;;1.25;;
65420;SDS011;52028;50.658;14.004;2022-09-09T16:18:41;4.18;;;1.45;;
65420;SDS011;52028;50.658;14.004;2022-09-09T16:21:08;2.67;;;1.40;;
65420;SDS011;52028;50.658;14.004;2022-09-09T16:23:39;2.65;;;1.50;;
65420;SDS011;52028;50.658;14.004;2022-09-09T16:26:04;4.97;;;1.50;;
65420;SDS011;52028;50.658;14.004;2022-09-09T16:28:30;3.28;;;1.15;;
65420;SDS011;52028;50.658;14.004;2022-09-09T16:30:56;2.63;;;1.50;;
65420;SDS011;52028;50.658;14.004;2022-09-09T16:33:23;3.08;;;1.40;;
65420;SDS011;52028;50.658;14.004;2022-09-09T16:35:48;6.47;;;1.60;;
65420;SDS011;52028;50.658;14.004;2022-09-09T16:38:14;4.55;;;1.40;;
65420;SDS011;52028;50.658;14.004;2022-09-09T16:40:40;3.47;;;1.60;;
65420;SDS011;52028;50.658;14.004;2022-09-09T16:43:06;6.95;;;1.65;;
65420;SDS011;52028;50.658;14.004;2022-09-09T16:45:32;9.48;;;1.92;;
65420;SDS011;52028;50.658;14.004;2022-09-09T16:47:58;1.83;;;1.30;;
65420;SDS011;52028;50.658;14.004;2022-09-09T16:50:25;3.33;;;1.60;;
65420;SDS011;52028;50.658;14.004;2022-09-09T16:52:51;1.80;;;1.55;;
65420;SDS011;52028;50.658;14.004;2022-09-09T16:55:16;5.65;;;1.55;;
65420;SDS011;52028;50.658;14.004;2022-09-09T16:57:42;3.63;;;1.60;;
65420;SDS011;52028;50.658;14.004;2022-09-09T17:00:08;4.53;;;1.60;;
65420;SDS011;52028;50.658;14.004;2022-09-09T17:02:34;7.50;;;1.70;;
65420;SDS011;52028;50.658;14.004;2022-09-09T17:04:59;4.97;;;1.90;;
65420;SDS011;52028;50.658;14.004;2022-09-09T17:07:24;4.95;;;1.70;;
65420;SDS011;52028;50.658;14.004;2022-09-09T17:09:50;3.85;;;1.60;;
65420;SDS011;52028;50.658;14.004;2022-09-09T17:12:16;4.57;;;1.75;;
65420;SDS011;52028;50.658;14.004;2022-09-09T17:14:41;4.45;;;2.25;;
65420;SDS011;52028;50.658;14.004;2022-09-09T17:17:07;6.90;;;2.15;;
65420;SDS011;52028;50.658;14.004;2022-09-09T17:19:32;6.88;;;1.70;;